Time;durP1;ratioP1;P1;durP2;ratioP2;P2;SDS_P1;SDS_P2;PMS_P1;PMS_P2;Temp;Humidity;BMP_temperature;BMP_pressure;BME280_temperature;BME280_humidity;BME280_pressure;Samples;Min_cycle;Max_cycle;Signal;HPM_P1;HPM_P2
2020/12/03 00:01:09;;;;;;;4.78;3.83;;;;;;;18.72;53.71;100737.94;4982827;28;20077;-75
2020/12/03 00:03:50;;;;;;;4.18;3.67;;;;;;;18.70;53.62;100723.97;4995651;28;20022;-75
2020/12/03 00:06:24;;;;;;;5.53;4.45;;;;;;;18.73;53.53;100729.19;4977684;28;20117;-75
2020/12/03 00:09:12;;;;;;;5.53;3.95;;;;;;;18.71;53.60;100717.84;4993236;28;20029;-75
2020/12/03 00:11:44;;;;;;;5.60;4.20;;;;;;;18.68;53.64;100709.19;4981647;28;20026;-74
2020/12/03 00:14:10;;;;;;;4.10;3.65;;;;;;;18.70;53.75;100713.50;4978361;28;20069;-74
2020/12/03 00:16:36;;;;;;;6.28;4.38;;;;;;;18.64;53.61;100695.22;4977665;28;20030;-74
2020/12/03 00:19:04;;;;;;;5.18;4.00;;;;;;;18.68;53.44;100690.84;4956026;28;20198;-74
2020/12/03 00:21:40;;;;;;;6.13;4.20;;;;;;;18.68;53.41;100686.47;4988856;28;20030;-74
2020/12/03 00:24:08;;;;;;;4.85;3.80;;;;;;;18.63;53.54;100672.53;4983238;28;20376;-74
2020/12/03 00:26:34;;;;;;;5.18;3.83;;;;;;;18.69;53.60;100677.75;4970581;28;20501;-74
2020/12/03 00:29:00;;;;;;;4.75;3.85;;;;;;;18.66;53.43;100666.41;4952481;28;20038;-74
2020/12/03 00:31:26;;;;;;;4.47;3.65;;;;;;;18.67;53.33;100668.16;5003440;28;20483;-75
2020/12/03 00:33:53;;;;;;;3.85;3.20;;;;;;;18.67;53.48;100655.91;4994200;28;20101;-75
2020/12/03 00:36:19;;;;;;;4.65;3.75;;;;;;;18.68;53.45;100656.78;4977303;28;20046;-75
2020/12/03 00:38:46;;;;;;;5.07;4.20;;;;;;;18.67;53.65;100657.66;4974345;28;20026;-75
2020/12/03 00:41:11;;;;;;;4.88;3.47;;;;;;;18.64;53.48;100650.72;4976665;28;20373;-75
2020/12/03 00:43:36;;;;;;;4.03;3.30;;;;;;;18.66;53.30;100640.22;5000349;28;20033;-75
2020/12/03 00:46:02;;;;;;;4.30;3.65;;;;;;;18.59;53.63;100634.16;4994154;28;20084;-75
2020/12/03 00:48:28;;;;;;;4.45;3.42;;;;;;;18.62;53.61;100628.03;4972125;28;20045;-75
2020/12/03 00:50:53;;;;;;;4.75;3.95;;;;;;;18.60;53.49;100625.41;4976444;28;20053;-75
2020/12/03 00:53:19;;;;;;;5.13;3.60;;;;;;;18.57;53.36;100620.16;4982932;28;20042;-75
2020/12/03 00:55:46;;;;;;;4.45;3.58;;;;;;;18.64;53.35;100623.66;4999962;28;20045;-75
2020/12/03 00:58:11;;;;;;;4.15;3.35;;;;;;;18.64;53.48;100621.03;5011798;28;20029;-74
2020/12/03 01:00:37;;;;;;;5.40;4.13;;;;;;;18.62;53.48;100617.53;5014432;28;20490;-75
2020/12/03 01:03:03;;;;;;;3.78;3.20;;;;;;;18.60;53.72;100599.22;5002938;28;20105;-76
2020/12/03 01:05:28;;;;;;;5.07;3.63;;;;;;;18.62;53.48;100602.69;5011288;28;20037;-76
2020/12/03 01:07:54;;;;;;;4.43;3.80;;;;;;;18.59;53.51;100602.72;4996033;28;20431;-75
2020/12/03 01:10:24;;;;;;;6.05;4.25;;;;;;;18.55;53.57;100594.00;5017403;28;20472;-74
2020/12/03 01:12:50;;;;;;;4.55;3.30;;;;;;;18.57;53.40;100600.06;5019297;28;20030;-75
2020/12/03 01:15:16;;;;;;;5.18;3.78;;;;;;;18.63;53.42;100603.56;5017038;28;20034;-75
2020/12/03 01:17:43;;;;;;;5.45;3.90;;;;;;;18.61;53.62;100603.59;5010298;28;20036;-75
2020/12/03 01:20:14;;;;;;;5.30;3.42;;;;;;;18.61;53.57;100602.72;5012634;28;20105;-76
2020/12/03 01:22:40;;;;;;;4.35;3.38;;;;;;;18.61;53.40;100600.09;5013707;28;20026;-75
2020/12/03 01:25:06;;;;;;;4.53;3.58;;;;;;;18.60;53.58;100599.22;5014604;28;20029;-75
2020/12/03 01:27:32;;;;;;;4.93;3.53;;;;;;;18.57;53.62;100593.97;5012911;28;20037;-76
2020/12/03 01:29:57;;;;;;;7.00;3.33;;;;;;;18.59;52.92;100597.47;4993428;28;20026;-76
2020/12/03 01:32:23;;;;;;;4.85;3.03;;;;;;;18.60;53.59;100590.50;4996722;28;20029;-74
2020/12/03 01:34:48;;;;;;;3.63;2.75;;;;;;;18.54;53.55;100580.94;5010744;28;20042;-75
2020/12/03 01:37:17;;;;;;;5.72;3.97;;;;;;;18.55;53.58;100582.66;4979681;28;20558;-74
2020/12/03 01:39:42;;;;;;;4.65;4.15;;;;;;;18.59;53.44;100591.38;4992742;28;20041;-74
2020/12/03 01:42:08;;;;;;;3.63;3.03;;;;;;;18.54;53.51;100581.81;5001915;28;20029;-74
2020/12/03 01:44:54;;;;;;;6.05;3.28;;;;;;;18.57;53.52;100578.25;4976399;28;20022;-74
2020/12/03 01:47:38;;;;;;;5.10;3.40;;;;;;;18.53;53.48;100585.31;5007743;28;20436;-75
2020/12/03 01:50:07;;;;;;;3.70;3.20;;;;;;;18.55;53.57;100578.31;5013018;28;20084;-74
2020/12/03 01:52:33;;;;;;;4.35;3.50;;;;;;;18.53;53.29;100572.22;5011868;28;20037;-76
2020/12/03 01:54:59;;;;;;;5.03;3.20;;;;;;;18.52;53.51;100570.47;5010003;28;20036;-76
2020/12/03 01:57:47;;;;;;;4.00;2.97;;;;;;;18.54;53.46;100578.31;5013023;28;20026;-75
2020/12/03 02:00:15;;;;;;;4.93;3.28;;;;;;;18.53;53.29;100574.81;5013412;28;20022;-76
2020/12/03 02:02:44;;;;;;;3.55;3.17;;;;;;;18.53;53.42;100576.56;4999561;28;20018;-76
2020/12/03 02:05:12;;;;;;;4.05;3.17;;;;;;;18.54;53.49;100573.94;5011361;28;20033;-76
2020/12/03 02:07:38;;;;;;;4.03;2.70;;;;;;;18.54;53.43;100571.31;5019339;28;20021;-76
2020/12/03 02:10:05;;;;;;;3.33;2.90;;;;;;;18.55;53.61;100559.09;5016837;28;20125;-75
2020/12/03 02:12:30;;;;;;;4.60;3.35;;;;;;;18.46;53.53;100546.06;5010603;28;20084;-74
2020/12/03 02:14:56;;;;;;;3.85;2.85;;;;;;;18.51;53.62;100546.91;4979124;28;20033;-74
2020/12/03 02:17:21;;;;;;;4.30;3.10;;;;;;;18.52;53.33;100546.03;5012921;28;20104;-74
2020/12/03 02:19:53;;;;;;;3.55;2.60;;;;;;;18.43;53.52;100531.28;5016495;28;20124;-75
2020/12/03 02:22:19;;;;;;;4.45;3.15;;;;;;;18.47;53.42;100535.59;5022026;28;20026;-75
2020/12/03 02:24:44;;;;;;;4.22;3.17;;;;;;;18.46;53.52;100528.63;5018333;28;20028;-74
2020/12/03 02:27:12;;;;;;;4.63;2.58;;;;;;;18.52;53.45;100543.41;5018927;28;20038;-74
2020/12/03 02:29:37;;;;;;;3.45;2.75;;;;;;;18.47;53.43;100526.88;5018030;28;20026;-74
2020/12/03 02:32:04;;;;;;;4.90;3.30;;;;;;;18.48;53.60;100536.47;5015895;28;20044;-75
2020/12/03 02:34:29;;;;;;;3.67;3.13;;;;;;;18.46;53.56;100526.00;5013836;28;20029;-74
2020/12/03 02:36:58;;;;;;;3.60;2.35;;;;;;;18.50;53.48;100521.59;4979698;28;20388;-74
2020/12/03 02:39:25;;;;;;;3.60;2.60;;;;;;;18.50;53.79;100516.38;5009864;28;20065;-74
2020/12/03 02:41:51;;;;;;;4.25;2.65;;;;;;;18.46;53.39;100512.91;5015879;28;20021;-74
2020/12/03 02:44:17;;;;;;;3.78;3.10;;;;;;;18.46;53.46;100507.66;5015314;28;20029;-74
2020/12/03 02:46:42;;;;;;;3.15;2.25;;;;;;;18.49;53.71;100506.78;5015456;28;20038;-74
2020/12/03 02:49:10;;;;;;;4.18;3.42;;;;;;;18.48;53.59;100505.91;5024611;28;20060;-74
2020/12/03 02:51:36;;;;;;;3.08;2.28;;;;;;;18.40;53.71;100492.03;5014508;28;20022;-75
2020/12/03 02:54:02;;;;;;;3.60;2.60;;;;;;;18.47;53.72;100493.69;5015610;28;20389;-74
2020/12/03 02:56:27;;;;;;;4.10;3.10;;;;;;;18.47;53.66;100491.09;5015913;28;20056;-74
2020/12/03 02:58:52;;;;;;;4.35;3.03;;;;;;;18.43;53.59;100475.44;5014541;28;20041;-75
2020/12/03 03:01:18;;;;;;;4.75;2.95;;;;;;;18.44;54.01;100471.91;4998830;28;20049;-74
2020/12/03 03:03:44;;;;;;;3.42;2.78;;;;;;;18.47;53.47;100478.00;5015457;28;20026;-74
2020/12/03 03:06:10;;;;;;;5.20;3.03;;;;;;;18.42;53.49;100464.09;5015019;28;20030;-75
2020/12/03 03:08:36;;;;;;;3.17;2.60;;;;;;;18.44;53.61;100467.53;5014859;28;20366;-74
2020/12/03 03:11:01;;;;;;;4.45;2.47;;;;;;;18.45;53.60;100469.28;5017270;28;20042;-74
2020/12/03 03:13:26;;;;;;;4.93;2.83;;;;;;;18.41;53.91;100461.50;5017414;28;20362;-75
2020/12/03 03:15:52;;;;;;;3.78;2.60;;;;;;;18.44;53.61;100471.91;5019239;28;20440;-74
2020/12/03 03:18:17;;;;;;;5.07;3.17;;;;;;;18.46;53.26;100467.53;5016169;28;20480;-75
2020/12/03 03:20:42;;;;;;;3.20;2.70;;;;;;;18.43;53.59;100460.59;5014758;28;20423;-75
2020/12/03 03:23:08;;;;;;;5.10;2.80;;;;;;;18.43;53.55;100450.13;5016699;28;20426;-75
2020/12/03 03:25:33;;;;;;;3.40;2.28;;;;;;;18.40;53.58;100439.69;5015116;28;20374;-75
2020/12/03 03:27:58;;;;;;;3.53;2.40;;;;;;;18.41;53.52;100437.94;4998334;28;20056;-75
2020/12/03 03:30:24;;;;;;;2.72;2.20;;;;;;;18.40;53.46;100433.56;4998448;28;20495;-74
2020/12/03 03:32:49;;;;;;;3.10;2.50;;;;;;;18.35;53.41;100420.53;4985791;28;20030;-74
2020/12/03 03:35:18;;;;;;;3.72;2.42;;;;;;;18.44;53.54;100424.78;4995364;28;20037;-74
2020/12/03 03:37:44;;;;;;;3.15;2.20;;;;;;;18.42;53.36;100423.97;5009585;28;20022;-74
2020/12/03 03:40:09;;;;;;;3.45;2.70;;;;;;;18.39;53.27;100416.13;5013106;28;20404;-74
2020/12/03 03:42:34;;;;;;;2.97;1.98;;;;;;;18.38;53.47;100415.25;4982135;28;20022;-75
2020/12/03 03:45:00;;;;;;;3.53;2.10;;;;;;;18.40;53.61;100410.00;5014376;28;20080;-74
2020/12/03 03:47:25;;;;;;;3.15;2.30;;;;;;;18.38;53.27;100399.56;5004741;28;20132;-74
2020/12/03 03:49:51;;;;;;;3.22;2.35;;;;;;;18.37;53.40;100400.44;4996067;28;20050;-74
2020/12/03 03:52:16;;;;;;;2.92;2.05;;;;;;;18.40;53.47;100410.00;4997619;28;20048;-74
2020/12/03 03:54:41;;;;;;;3.35;2.25;;;;;;;18.37;53.47;100394.34;5014287;28;20104;-74
2020/12/03 03:57:07;;;;;;;3.13;2.15;;;;;;;18.38;53.56;100398.69;5014478;28;20068;-74
2020/12/03 03:59:32;;;;;;;3.40;2.50;;;;;;;18.37;53.32;100386.47;4987492;28;20504;-74
2020/12/03 04:01:58;;;;;;;2.63;1.80;;;;;;;18.37;53.45;100376.88;4995167;28;20030;-74
2020/12/03 04:04:23;;;;;;;3.67;2.67;;;;;;;18.33;53.37;100371.69;4988801;28;20027;-74
2020/12/03 04:06:48;;;;;;;3.50;2.30;;;;;;;18.36;53.42;100374.28;4967121;28;22214;-74
2020/12/03 04:09:14;;;;;;;3.30;2.70;;;;;;;18.34;53.30;100368.19;5013843;28;20030;-75
2020/12/03 04:11:39;;;;;;;2.47;1.90;;;;;;;18.35;53.44;100356.84;5013531;28;20018;-75
2020/12/03 04:14:05;;;;;;;3.17;2.47;;;;;;;18.35;53.70;100359.44;4997733;28;20129;-74
2020/12/03 04:16:30;;;;;;;3.53;2.10;;;;;;;18.35;53.58;100348.97;4997673;28;20033;-74
2020/12/03 04:18:55;;;;;;;3.15;2.33;;;;;;;18.33;53.22;100341.16;4997766;28;20535;-75
2020/12/03 04:21:21;;;;;;;2.72;2.10;;;;;;;18.38;53.46;100348.94;4981071;28;20034;-74
2020/12/03 04:23:46;;;;;;;2.65;1.90;;;;;;;18.37;53.36;100336.75;4997429;28;20036;-74
2020/12/03 04:26:12;;;;;;;3.08;2.13;;;;;;;18.33;53.51;100329.81;5013848;28;20132;-74
2020/12/03 04:28:38;;;;;;;2.60;1.98;;;;;;;18.30;53.37;100319.41;4997269;28;20072;-75
2020/12/03 04:31:04;;;;;;;2.90;1.92;;;;;;;18.37;53.22;100321.03;5013007;28;20041;-75
2020/12/03 04:33:29;;;;;;;3.42;2.30;;;;;;;18.36;52.99;100307.09;5013794;28;20092;-74
2020/12/03 04:35:55;;;;;;;3.50;2.58;;;;;;;18.46;53.00;100315.66;5014353;28;20026;-74
2020/12/03 04:38:21;;;;;;;3.38;2.00;;;;;;;18.51;52.92;100313.88;4987064;28;20416;-75
2020/12/03 04:40:47;;;;;;;3.67;2.65;;;;;;;18.56;52.78;100314.69;4994526;28;20030;-74
2020/12/03 04:43:29;;;;;;;2.33;1.35;;;;;;;18.60;52.69;100316.38;5013577;28;20068;-75
2020/12/03 04:46:23;;;;;;;3.13;2.15;;;;;;;18.63;52.81;100308.50;4995114;28;20400;-74
2020/12/03 04:49:23;;;;;;;2.70;2.10;;;;;;;18.64;52.83;100312.00;4979469;28;20092;-74
2020/12/03 04:52:07;;;;;;;3.00;2.05;;;;;;;18.70;52.70;100310.13;5013124;28;20029;-75
2020/12/03 04:54:46;;;;;;;1.80;1.33;;;;;;;18.69;52.94;100304.94;4995990;28;20473;-75
2020/12/03 04:57:30;;;;;;;2.90;1.90;;;;;;;18.67;52.91;100286.63;4996982;28;20468;-75
2020/12/03 05:00:05;;;;;;;3.90;2.97;;;;;;;18.73;52.43;100273.44;5002450;28;20032;-74
2020/12/03 05:03:01;;;;;;;2.05;1.58;;;;;;;18.71;52.92;100264.72;5017857;28;20025;-75
2020/12/03 05:05:35;;;;;;;2.30;1.70;;;;;;;18.70;53.04;100265.59;5014197;28;20029;-75
2020/12/03 05:08:07;;;;;;;2.88;2.17;;;;;;;18.74;52.75;100259.44;5013512;28;20030;-75
2020/12/03 05:10:42;;;;;;;2.28;1.63;;;;;;;18.76;52.98;100252.44;5015930;28;20550;-74
2020/12/03 05:13:17;;;;;;;2.05;1.77;;;;;;;18.73;53.14;100241.13;5013302;28;20030;-75
2020/12/03 05:15:43;;;;;;;2.38;1.40;;;;;;;18.77;52.82;100238.44;5018992;28;20030;-74
2020/12/03 05:18:27;;;;;;;2.83;1.80;;;;;;;18.80;52.90;100240.16;4996949;28;20048;-74
2020/12/03 05:20:56;;;;;;;2.92;1.77;;;;;;;18.76;52.96;100233.22;5014859;28;20033;-74
2020/12/03 05:23:30;;;;;;;2.80;1.88;;;;;;;18.74;52.84;100225.41;5009366;28;20065;-74
2020/12/03 05:25:57;;;;;;;2.70;1.67;;;;;;;18.80;52.93;100214.84;5012889;28;20049;-75
2020/12/03 05:28:25;;;;;;;2.28;1.55;;;;;;;18.79;53.18;100209.63;5012409;28;20129;-74
2020/12/03 05:30:55;;;;;;;2.17;1.50;;;;;;;18.74;53.04;100206.19;5013807;28;20026;-74
2020/12/03 05:33:20;;;;;;;4.90;1.83;;;;;;;18.86;52.98;100203.38;5012618;28;20084;-74
2020/12/03 05:35:46;;;;;;;2.63;1.80;;;;;;;18.80;52.96;100193.88;4979536;28;20073;-74
2020/12/03 05:38:23;;;;;;;2.20;1.52;;;;;;;18.75;53.08;100182.59;5010026;28;20041;-75
2020/12/03 05:41:01;;;;;;;2.58;1.63;;;;;;;18.86;52.95;100187.66;5006369;28;20442;-75
2020/12/03 05:43:28;;;;;;;1.88;1.40;;;;;;;18.84;52.83;100178.94;5006793;28;20029;-75
2020/12/03 05:45:55;;;;;;;2.17;1.55;;;;;;;18.80;52.86;100167.69;5007120;28;20040;-75
2020/12/03 05:48:21;;;;;;;2.70;2.03;;;;;;;18.77;52.99;100167.72;5008850;28;21622;-75
2020/12/03 05:50:47;;;;;;;2.25;1.65;;;;;;;18.75;52.96;100155.53;5012808;28;20121;-75
2020/12/03 05:53:17;;;;;;;4.22;1.92;;;;;;;18.76;52.75;100162.50;5009979;28;20157;-75
2020/12/03 05:55:47;;;;;;;3.20;1.58;;;;;;;18.68;53.24;100136.47;5011563;28;20472;-80
2020/12/03 05:58:31;;;;;;;2.63;1.80;;;;;;;18.77;52.98;100157.25;5013947;28;20029;-74
2020/12/03 06:01:21;;;;;;;3.65;1.45;;;;;;;18.71;53.39;100146.00;5011713;28;20104;-75
2020/12/03 06:03:47;;;;;;;2.22;1.60;;;;;;;18.73;53.77;100150.31;5013501;28;20033;-75
2020/12/03 06:06:18;;;;;;;4.28;1.90;;;;;;;18.71;53.39;100148.63;5008993;28;20034;-76
2020/12/03 06:09:03;;;;;;;3.50;2.67;;;;;;;18.70;53.60;100155.59;5010362;28;20487;-75
2020/12/03 06:11:37;;;;;;;3.47;1.48;;;;;;;18.68;53.54;100151.31;5023927;28;20061;-74
2020/12/03 06:14:21;;;;;;;2.70;1.60;;;;;;;18.68;53.71;100143.44;5008343;28;20026;-75
2020/12/03 06:17:26;;;;;;;5.07;2.40;;;;;;;18.69;53.66;100145.19;4992314;28;20038;-75
2020/12/03 06:20:19;;;;;;;4.43;2.70;;;;;;;18.68;53.74;100143.44;5000722;28;20026;-76
2020/12/03 06:23:11;;;;;;;4.82;2.55;;;;;;;18.66;53.76;100137.38;5010528;28;20048;-75
2020/12/03 06:26:15;;;;;;;5.03;2.42;;;;;;;18.69;53.65;100139.94;4992881;28;20038;-76
2020/12/03 06:28:58;;;;;;;4.85;3.50;;;;;;;18.66;53.68;100140.00;4917345;29;20036;-76
2020/12/03 06:31:31;;;;;;;7.25;2.92;;;;;;;18.66;53.95;100137.38;5003741;28;20084;-79
2020/12/03 06:34:07;;;;;;;6.20;3.00;;;;;;;18.67;53.50;100126.00;5011135;28;20018;-75
2020/12/03 06:36:43;;;;;;;9.00;2.92;;;;;;;18.63;54.05;100111.22;5009697;28;20030;-75
2020/12/03 06:39:42;;;;;;;5.13;3.00;;;;;;;18.66;53.85;100106.81;5007396;28;20084;-75
2020/12/03 06:42:28;;;;;;;4.07;2.60;;;;;;;18.67;53.90;100107.69;5011963;28;20022;-75
2020/12/03 06:45:19;;;;;;;4.15;2.75;;;;;;;18.77;53.69;100102.25;5001119;28;20041;-75
2020/12/03 06:48:03;;;;;;;5.50;2.70;;;;;;;18.85;53.50;100102.97;4993650;28;20026;-78
2020/12/03 06:50:50;;;;;;;9.00;2.80;;;;;;;18.89;53.47;100098.53;5006305;28;20128;-76
2020/12/03 06:53:35;;;;;;;6.95;3.45;;;;;;;18.97;53.58;100101.00;5010548;28;20041;-75
2020/12/03 06:56:19;;;;;;;6.10;2.78;;;;;;;18.97;53.40;100087.91;5002166;28;20121;-75
2020/12/03 06:59:35;;;;;;;4.65;3.20;;;;;;;18.96;53.47;100080.94;5011790;28;20053;-75
2020/12/03 07:02:40;;;;;;;5.07;2.78;;;;;;;18.98;53.41;100072.16;4983201;28;20036;-75
2020/12/03 07:05:37;;;;;;;6.90;3.28;;;;;;;18.91;53.52;100060.06;4989541;28;20038;-75
2020/12/03 07:08:26;;;;;;;4.85;3.05;;;;;;;18.90;53.75;100061.84;5017023;28;20037;-76
2020/12/03 07:11:17;;;;;;;6.35;4.03;;;;;;;18.91;53.52;100055.69;5013446;28;20072;-76
2020/12/03 07:14:21;;;;;;;6.00;2.72;;;;;;;18.86;53.26;100060.16;5016950;28;20492;-76
2020/12/03 07:17:17;;;;;;;5.80;3.10;;;;;;;18.94;53.57;100061.78;5013755;28;20053;-77
2020/12/03 07:20:04;;;;;;;5.57;2.63;;;;;;;18.95;53.56;100060.88;5009749;28;20092;-75
2020/12/03 07:22:39;;;;;;;17.20;5.82;;;;;;;18.90;53.30;100056.59;5015071;28;20026;-75
2020/12/03 07:25:06;;;;;;;4.55;2.42;;;;;;;18.95;53.69;100059.13;5016249;28;20022;-75
2020/12/03 07:27:52;;;;;;;4.32;3.17;;;;;;;18.95;53.47;100055.66;5016214;28;20109;-75
2020/12/03 07:30:30;;;;;;;5.65;3.13;;;;;;;18.86;53.53;100051.44;5016208;28;20022;-75
2020/12/03 07:33:17;;;;;;;6.18;3.05;;;;;;;18.97;53.48;100064.31;5014809;28;20022;-75
2020/12/03 07:35:48;;;;;;;4.60;3.15;;;;;;;18.94;53.36;100064.41;5014850;28;20029;-75
2020/12/03 07:38:29;;;;;;;4.72;3.15;;;;;;;18.90;53.51;100053.09;5014946;28;20021;-75
2020/12/03 07:40:56;;;;;;;6.82;2.72;;;;;;;18.92;53.36;100048.72;5015881;28;20053;-75
2020/12/03 07:43:30;;;;;;;5.13;2.70;;;;;;;18.93;53.36;100047.81;5010887;28;20037;-75
2020/12/03 07:45:56;;;;;;;5.50;2.70;;;;;;;18.89;53.52;100044.38;5003655;28;20026;-75
2020/12/03 07:48:30;;;;;;;4.45;3.00;;;;;;;18.97;53.45;100043.34;4973733;28;20118;-75
2020/12/03 07:51:01;;;;;;;4.95;2.58;;;;;;;18.97;53.21;100044.22;5008824;28;20049;-75
2020/12/03 07:53:28;;;;;;;4.53;2.67;;;;;;;18.91;53.28;100042.59;5007864;28;20038;-75
2020/12/03 07:55:54;;;;;;;4.10;2.90;;;;;;;18.94;53.37;100038.19;5012289;28;20033;-75
2020/12/03 07:58:48;;;;;;;4.80;3.10;;;;;;;18.98;53.19;100030.22;4983476;28;20388;-75
2020/12/03 08:01:37;;;;;;;4.53;3.25;;;;;;;18.95;53.29;100038.19;4994628;28;20538;-75
2020/12/03 08:04:08;;;;;;;4.78;3.30;;;;;;;18.98;53.14;100035.47;5002789;28;20380;-75
2020/12/03 08:06:39;;;;;;;6.28;3.20;;;;;;;18.99;53.16;100024.09;5007526;28;20033;-76
2020/12/03 08:09:04;;;;;;;4.15;2.75;;;;;;;19.05;53.10;100016.13;4999328;28;20543;-75
2020/12/03 08:11:57;;;;;;;4.50;2.72;;;;;;;19.11;53.23;100016.00;5012994;28;20112;-75
2020/12/03 08:14:28;;;;;;;5.40;3.17;;;;;;;19.11;53.38;100005.50;5008018;28;20033;-75
2020/12/03 08:16:55;;;;;;;8.07;3.17;;;;;;;19.11;53.12;99996.78;5009629;28;20040;-76
2020/12/03 08:19:28;;;;;;;5.50;3.80;;;;;;;19.12;53.10;100002.00;5013010;28;20038;-75
2020/12/03 08:21:54;;;;;;;7.57;2.90;;;;;;;19.04;53.35;99995.19;5013939;28;20083;-76
2020/12/03 08:24:26;;;;;;;3.60;2.80;;;;;;;19.05;53.23;99984.69;4989538;28;20226;-75
2020/12/03 08:27:01;;;;;;;4.55;3.08;;;;;;;19.09;53.16;99988.09;5005798;28;20101;-75
2020/12/03 08:29:38;;;;;;;8.40;3.40;;;;;;;19.08;53.57;99991.63;5015600;28;20472;-75
2020/12/03 08:32:04;;;;;;;5.78;3.28;;;;;;;19.15;53.41;99987.97;5008834;28;20554;-76
2020/12/03 08:34:33;;;;;;;6.10;3.10;;;;;;;19.17;53.52;99994.06;5010738;28;20062;-75
2020/12/03 08:36:59;;;;;;;3.97;3.00;;;;;;;19.11;53.56;99986.31;4994425;28;20678;-76
2020/12/03 08:39:25;;;;;;;7.57;3.30;;;;;;;19.13;53.37;99977.50;5010955;28;20484;-75
2020/12/03 08:41:52;;;;;;;5.25;2.58;;;;;;;19.15;53.58;99973.09;5005227;28;20033;-76
2020/12/03 08:44:18;;;;;;;4.28;3.13;;;;;;;19.11;53.57;99965.34;4993322;28;20027;-76
2020/12/03 08:46:43;;;;;;;4.95;2.67;;;;;;;19.13;53.55;99960.94;5004586;28;20543;-76
2020/12/03 08:49:19;;;;;;;3.53;2.38;;;;;;;19.17;53.67;99946.88;5006983;28;20145;-77
2020/12/03 08:51:49;;;;;;;3.58;2.72;;;;;;;19.10;53.53;99930.41;4994895;28;20030;-76
2020/12/03 08:54:14;;;;;;;3.53;2.60;;;;;;;19.12;53.58;99935.63;5009385;28;20038;-76
2020/12/03 08:56:44;;;;;;;4.00;2.80;;;;;;;19.15;53.53;99923.31;4996306;28;20032;-75
2020/12/03 08:59:17;;;;;;;3.70;2.50;;;;;;;19.13;53.46;99919.00;5013190;28;20042;-76
2020/12/03 09:01:51;;;;;;;4.93;2.88;;;;;;;19.09;53.54;99928.69;5009897;28;20447;-75
2020/12/03 09:04:23;;;;;;;2.92;2.38;;;;;;;19.13;53.69;99929.47;5001248;28;20021;-76
2020/12/03 09:06:51;;;;;;;5.03;3.10;;;;;;;19.08;53.57;99916.50;5008145;28;20034;-75
2020/12/03 09:09:22;;;;;;;3.85;2.63;;;;;;;19.07;53.21;99911.28;4995919;28;20370;-75
2020/12/03 09:11:50;;;;;;;3.17;2.40;;;;;;;19.10;53.43;99901.56;5008461;28;20029;-76
2020/12/03 09:14:16;;;;;;;3.45;2.72;;;;;;;19.13;53.66;99913.75;4993686;28;20646;-75
2020/12/03 09:16:45;;;;;;;2.88;2.50;;;;;;;19.10;53.52;99909.44;4988949;28;20026;-75
2020/12/03 09:19:10;;;;;;;5.00;3.15;;;;;;;19.12;53.62;99899.78;5007483;28;20108;-75
2020/12/03 09:21:38;;;;;;;3.67;2.40;;;;;;;19.16;53.31;99893.59;5008296;28;20392;-76
2020/12/03 09:24:05;;;;;;;2.80;2.25;;;;;;;19.11;53.52;99884.09;5003698;28;20041;-75
2020/12/03 09:26:33;;;;;;;3.13;2.30;;;;;;;19.16;53.22;99883.09;4978224;28;20124;-76
2020/12/03 09:29:01;;;;;;;4.40;2.88;;;;;;;19.14;53.29;99877.03;5005651;28;20033;-76
2020/12/03 09:31:30;;;;;;;3.95;2.47;;;;;;;19.12;53.42;99872.72;5007593;28;20080;-76
2020/12/03 09:33:56;;;;;;;3.45;2.38;;;;;;;19.07;53.25;99856.25;5000530;28;20377;-76
2020/12/03 09:36:22;;;;;;;2.92;2.45;;;;;;;19.16;53.27;99864.75;5008311;28;20025;-76
2020/12/03 09:38:49;;;;;;;2.80;2.42;;;;;;;19.11;53.43;99852.66;4988777;28;20088;-76
2020/12/03 09:41:20;;;;;;;3.55;2.55;;;;;;;19.11;53.35;99848.28;4992824;28;20030;-76
2020/12/03 09:43:47;;;;;;;3.25;2.00;;;;;;;19.16;53.62;99845.56;5007381;28;20076;-76
2020/12/03 09:46:17;;;;;;;3.70;2.55;;;;;;;19.14;53.17;99848.22;5001635;28;20036;-76
2020/12/03 09:48:45;;;;;;;3.15;2.58;;;;;;;19.11;53.59;99835.16;5001799;28;20444;-76
2020/12/03 09:51:11;;;;;;;2.25;1.77;;;;;;;19.10;53.30;99812.47;5004415;28;20062;-76
2020/12/03 09:53:36;;;;;;;3.92;2.55;;;;;;;19.11;53.29;99818.59;4978017;28;20046;-77
2020/12/03 09:56:03;;;;;;;3.88;2.50;;;;;;;19.19;53.31;99816.66;5004076;28;20034;-75
2020/12/03 09:58:29;;;;;;;2.60;1.80;;;;;;;19.20;53.46;99814.00;4987691;28;20037;-75
2020/12/03 10:01:02;;;;;;;3.85;2.83;;;;;;;19.19;53.44;99811.41;5007769;28;20048;-75
2020/12/03 10:03:49;;;;;;;3.10;2.35;;;;;;;19.20;53.58;99810.53;5009336;28;20120;-75
2020/12/03 10:06:31;;;;;;;4.60;2.75;;;;;;;19.20;53.28;99813.16;5005719;28;20084;-75
2020/12/03 10:09:19;;;;;;;6.05;3.00;;;;;;;19.12;53.69;99792.34;5005939;28;20034;-75
2020/12/03 10:12:02;;;;;;;3.53;2.17;;;;;;;19.20;53.60;99794.78;5010050;28;20132;-75
2020/12/03 10:14:47;;;;;;;;;;;;;;;19.19;53.38;99790.44;5007435;28;20030;-75
2020/12/03 10:17:17;;;;;;;;;;;;;;;19.16;53.58;99783.53;5011569;28;19952;-75
2020/12/03 10:19:44;;;;;;;3.05;2.38;;;;;;;19.20;53.69;99781.69;5006630;28;19920;-75
2020/12/03 10:22:25;;;;;;;2.72;2.28;;;;;;;19.19;53.66;99762.47;5018453;28;20036;-75
2020/12/03 10:25:05;;;;;;;3.47;2.97;;;;;;;19.18;53.64;99767.75;5009065;28;20479;-75
2020/12/03 10:27:42;;;;;;;2.65;2.42;;;;;;;19.23;53.54;99768.50;5003849;28;20033;-75
2020/12/03 10:30:15;;;;;;;2.47;1.90;;;;;;;19.20;53.55;99761.59;5008364;28;20095;-75
2020/12/03 10:32:46;;;;;;;4.95;2.60;;;;;;;19.17;53.42;99755.56;5008347;28;20080;-75
2020/12/03 10:35:13;;;;;;;5.50;2.90;;;;;;;19.19;53.76;99738.03;5001974;28;20113;-75
2020/12/03 10:37:50;;;;;;;2.83;2.20;;;;;;;19.24;53.39;99738.75;5023649;28;20065;-75
2020/12/03 10:40:18;;;;;;;3.45;2.60;;;;;;;19.23;53.48;99734.41;5014557;28;20041;-75
2020/12/03 10:42:52;;;;;;;3.45;2.08;;;;;;;19.25;53.41;99727.38;5004544;28;20469;-75
2020/12/03 10:45:25;;;;;;;2.85;2.35;;;;;;;19.20;53.69;99721.41;5004099;28;20068;-75
2020/12/03 10:47:56;;;;;;;3.80;2.10;;;;;;;19.13;53.68;99704.09;5012548;28;20022;-75
2020/12/03 10:50:48;;;;;;;2.92;2.17;;;;;;;19.24;53.63;99716.03;5004968;28;20068;-75
2020/12/03 10:53:18;;;;;;;3.20;2.10;;;;;;;19.25;53.38;99690.69;5004510;28;20034;-77
2020/12/03 10:55:44;;;;;;;5.25;2.55;;;;;;;19.26;53.38;99687.16;5015663;28;20468;-80
2020/12/03 10:58:12;;;;;;;3.25;2.30;;;;;;;19.30;53.33;99685.34;5004291;28;20088;-78
2020/12/03 11:00:41;;;;;;;3.95;2.28;;;;;;;19.30;53.49;99680.94;4997070;28;20033;-75
2020/12/03 11:03:12;;;;;;;2.63;2.28;;;;;;;19.32;53.63;99673.91;5015910;28;20033;-75
2020/12/03 11:05:43;;;;;;;3.22;2.00;;;;;;;19.34;53.34;99666.00;5001080;28;20034;-78
2020/12/03 11:08:08;;;;;;;2.67;1.90;;;;;;;19.33;53.54;99664.28;5009063;28;20088;-79
2020/12/03 11:10:34;;;;;;;2.67;2.35;;;;;;;19.38;53.78;99660.63;4984459;28;20034;-80
2020/12/03 11:13:00;;;;;;;3.15;2.63;;;;;;;19.42;53.68;99659.66;4992087;28;20124;-74
2020/12/03 11:15:28;;;;;;;3.25;1.98;;;;;;;19.39;53.76;99649.25;4997553;28;20556;-76
2020/12/03 11:18:11;;;;;;;3.22;2.70;;;;;;;19.42;53.85;99643.91;4999312;28;20405;-76
2020/12/03 11:20:38;;;;;;;10.93;3.85;;;;;;;19.52;53.84;99642.78;5009051;28;20029;-75
2020/12/03 11:23:03;;;;;;;7.85;2.97;;;;;;;19.50;53.72;99631.47;5009545;28;20532;-74
2020/12/03 11:25:29;;;;;;;8.20;3.28;;;;;;;19.53;53.77;99626.16;5005549;28;20128;-74
2020/12/03 11:27:59;;;;;;;7.32;3.33;;;;;;;19.58;53.80;99626.88;5009555;28;20044;-76
2020/12/03 11:30:27;;;;;;;6.10;3.33;;;;;;;19.48;53.93;99611.41;5010927;28;20046;-75
2020/12/03 11:32:54;;;;;;;3.22;2.92;;;;;;;19.47;54.10;99621.06;4999662;28;20022;-76
2020/12/03 11:35:40;;;;;;;4.38;3.20;;;;;;;19.50;53.87;99613.13;4997626;28;20030;-75
2020/12/03 11:38:05;;;;;;;3.42;2.75;;;;;;;19.46;53.78;99595.75;5004091;28;20053;-74
2020/12/03 11:46:08;;;;;;;3.97;2.65;;;;;;;19.51;54.00;99577.28;5014114;28;20030;-75
2020/12/03 11:48:45;;;;;;;4.40;3.50;;;;;;;19.49;53.71;99566.81;5010968;28;20065;-75
2020/12/03 11:51:30;;;;;;;3.45;2.33;;;;;;;19.52;53.96;99568.50;4967502;28;20046;-75
2020/12/03 11:54:03;;;;;;;4.20;2.65;;;;;;;19.48;54.02;99562.44;4995626;28;22052;-75
2020/12/03 11:56:29;;;;;;;3.50;2.22;;;;;;;19.52;53.68;99558.88;5003402;28;20036;-75